Time;durP1;ratioP1;P1;durP2;ratioP2;P2;SDS_P1;SDS_P2;PMS_P1;PMS_P2;Temp;Humidity;BMP_temperature;BMP_pressure;BME280_temperature;BME280_humidity;BME280_pressure;Samples;Min_cycle;Max_cycle;Signal;HPM_P1;HPM_P2
2021/06/13 00:01:51;;;;;;;5.30;4.80;;;15.60;99.90;;;;;;461068;257;28876;-68
2021/06/13 00:03:53;;;;;;;5.30;4.23;;;15.60;99.90;;;;;;461039;257;28863;-66
2021/06/13 00:05:54;;;;;;;5.30;4.80;;;15.60;99.90;;;;;;461025;256;28912;-66
2021/06/13 00:07:55;;;;;;;4.80;4.20;;;15.60;99.90;;;;;;461014;257;28949;-66
2021/06/13 00:09:56;;;;;;;7.07;4.37;;;15.50;99.90;;;;;;461024;257;28887;-65
2021/06/13 00:11:58;;;;;;;6.93;4.83;;;15.50;99.90;;;;;;461051;257;29403;-67
2021/06/13 00:13:59;;;;;;;7.23;4.73;;;15.40;99.90;;;;;;461014;257;29471;-65
2021/06/13 00:16:00;;;;;;;5.30;4.60;;;15.30;99.90;;;;;;461048;257;29349;-66
2021/06/13 00:18:01;;;;;;;7.10;5.10;;;15.30;99.90;;;;;;461042;257;29314;-65
2021/06/13 00:20:03;;;;;;;5.70;4.60;;;15.30;99.90;;;;;;461042;257;28955;-66
2021/06/13 00:22:04;;;;;;;7.07;4.23;;;15.40;99.90;;;;;;461048;257;28900;-66
2021/06/13 00:24:05;;;;;;;5.37;4.60;;;15.40;99.90;;;;;;461028;257;28888;-66
2021/06/13 00:26:06;;;;;;;5.53;3.87;;;15.40;99.90;;;;;;461051;257;28932;-66
2021/06/13 00:28:08;;;;;;;6.90;4.50;;;15.40;99.90;;;;;;461008;257;28851;-65
2021/06/13 00:30:09;;;;;;;6.33;5.10;;;15.40;99.90;;;;;;461042;257;28856;-66
2021/06/13 00:32:10;;;;;;;7.53;4.80;;;15.30;99.90;;;;;;461029;257;28946;-67
2021/06/13 00:34:11;;;;;;;5.97;4.67;;;15.30;99.90;;;;;;461040;257;28881;-66
2021/06/13 00:36:13;;;;;;;4.60;4.20;;;15.30;99.90;;;;;;461034;257;29433;-66
2021/06/13 00:38:14;;;;;;;5.07;4.57;;;15.30;99.90;;;;;;461016;257;30099;-66
2021/06/13 00:40:15;;;;;;;6.23;4.60;;;15.20;99.90;;;;;;461056;257;29409;-66
2021/06/13 00:42:16;;;;;;;6.50;4.30;;;15.00;99.90;;;;;;461074;257;29386;-67
2021/06/13 00:44:18;;;;;;;9.20;5.37;;;15.00;99.90;;;;;;461032;257;28923;-65
2021/06/13 00:46:19;;;;;;;7.67;4.60;;;14.90;99.90;;;;;;461035;256;28956;-67
2021/06/13 00:48:20;;;;;;;6.23;4.30;;;14.80;99.90;;;;;;461044;255;28973;-65
2021/06/13 00:50:21;;;;;;;6.40;4.80;;;14.90;99.90;;;;;;461083;257;28921;-66
2021/06/13 00:52:23;;;;;;;9.20;4.83;;;14.90;99.90;;;;;;461077;257;28888;-66
2021/06/13 00:54:26;;;;;;;5.90;4.60;;;14.90;99.90;;;;;;461046;257;28897;-64
2021/06/13 00:56:25;;;;;;;6.70;5.00;;;14.80;99.90;;;;;;460941;258;28976;-66
2021/06/13 00:58:26;;;;;;;7.60;4.33;;;14.70;99.90;;;;;;461038;257;28897;-65
2021/06/13 01:00:28;;;;;;;10.13;4.77;;;14.60;99.90;;;;;;461076;257;28963;-66
2021/06/13 01:02:29;;;;;;;10.23;4.87;;;14.60;99.90;;;;;;461045;257;29392;-67
2021/06/13 01:04:30;;;;;;;9.37;5.20;;;14.50;99.90;;;;;;461042;257;29421;-65
2021/06/13 01:06:31;;;;;;;8.20;4.57;;;14.50;99.90;;;;;;461030;256;29474;-65
2021/06/13 01:08:33;;;;;;;6.50;4.87;;;14.60;99.90;;;;;;461060;257;28885;-65
2021/06/13 01:10:34;;;;;;;8.27;4.57;;;14.60;99.90;;;;;;461093;257;28932;-65
2021/06/13 01:12:35;;;;;;;8.43;4.43;;;14.70;99.90;;;;;;461054;257;28894;-63
2021/06/13 01:14:36;;;;;;;4.30;3.90;;;14.60;99.90;;;;;;461045;257;28936;-66
2021/06/13 01:16:38;;;;;;;6.23;4.20;;;14.60;99.90;;;;;;461059;257;29008;-65
2021/06/13 01:18:39;;;;;;;5.97;4.30;;;14.60;99.90;;;;;;461037;257;28935;-66
2021/06/13 01:20:40;;;;;;;7.87;5.00;;;14.60;99.90;;;;;;461038;257;28888;-65
2021/06/13 01:22:41;;;;;;;7.97;5.10;;;14.60;99.90;;;;;;461061;257;28894;-66
2021/06/13 01:24:43;;;;;;;5.37;4.20;;;14.50;99.90;;;;;;461046;257;29363;-66
2021/06/13 01:26:44;;;;;;;4.67;4.10;;;14.50;99.90;;;;;;461022;255;29491;-66
2021/06/13 01:28:45;;;;;;;5.50;3.97;;;14.50;99.90;;;;;;461024;257;29321;-65
2021/06/13 01:30:46;;;;;;;4.83;4.30;;;14.50;99.90;;;;;;461062;257;29457;-66
2021/06/13 01:32:48;;;;;;;5.07;4.13;;;14.50;99.90;;;;;;461073;257;28965;-68
2021/06/13 01:34:49;;;;;;;6.10;4.40;;;14.40;99.90;;;;;;461063;257;28898;-66
2021/06/13 01:36:50;;;;;;;7.10;4.20;;;14.40;99.90;;;;;;461056;257;28883;-66
2021/06/13 01:38:51;;;;;;;6.73;4.30;;;14.40;99.90;;;;;;461030;256;28937;-65
2021/06/13 01:40:53;;;;;;;5.67;3.63;;;14.40;99.90;;;;;;461058;257;28957;-65
2021/06/13 01:42:54;;;;;;;6.30;4.53;;;14.30;99.90;;;;;;461069;257;28892;-66
2021/06/13 01:44:55;;;;;;;6.50;4.53;;;14.30;99.90;;;;;;461051;257;28855;-65
2021/06/13 01:46:56;;;;;;;4.30;3.80;;;14.30;99.90;;;;;;461051;256;28908;-66
2021/06/13 01:48:58;;;;;;;7.03;4.00;;;14.30;99.90;;;;;;461035;256;28853;-66
2021/06/13 01:50:59;;;;;;;6.90;4.20;;;14.30;99.90;;;;;;461080;257;29443;-65
2021/06/13 01:53:00;;;;;;;6.57;4.80;;;14.30;99.90;;;;;;461056;257;29382;-67
2021/06/13 01:55:01;;;;;;;6.67;4.60;;;14.20;99.90;;;;;;461052;256;29022;-65
2021/06/13 01:57:03;;;;;;;7.00;5.10;;;14.10;99.90;;;;;;461061;257;28893;-66
2021/06/13 01:59:04;;;;;;;4.73;4.20;;;14.00;99.90;;;;;;461054;257;28442;-67
2021/06/13 02:01:05;;;;;;;7.80;5.30;;;13.90;99.90;;;;;;461067;257;28512;-65
2021/06/13 02:03:06;;;;;;;5.70;4.50;;;13.80;99.90;;;;;;461062;257;28990;-66
2021/06/13 02:05:08;;;;;;;7.60;5.03;;;13.80;99.90;;;;;;461052;257;28867;-65
2021/06/13 02:07:09;;;;;;;8.63;4.80;;;13.80;99.90;;;;;;461052;257;28347;-66
2021/06/13 02:09:10;;;;;;;8.80;4.50;;;13.80;99.90;;;;;;461101;257;28409;-65
2021/06/13 02:11:11;;;;;;;4.63;4.20;;;13.80;99.90;;;;;;461099;257;28952;-65
2021/06/13 02:13:13;;;;;;;6.43;4.37;;;13.80;99.90;;;;;;461069;257;28928;-65
2021/06/13 02:15:14;;;;;;;5.70;4.50;;;13.80;99.90;;;;;;461038;257;29100;-65
2021/06/13 02:17:15;;;;;;;7.07;4.00;;;13.70;99.90;;;;;;461040;257;29497;-65
2021/06/13 02:19:16;;;;;;;8.30;4.90;;;13.70;99.90;;;;;;461072;257;29153;-66
2021/06/13 02:21:18;;;;;;;5.70;3.93;;;13.80;99.90;;;;;;461045;257;28510;-65
2021/06/13 02:23:19;;;;;;;5.27;4.23;;;13.70;99.90;;;;;;461045;257;28459;-67
2021/06/13 02:25:20;;;;;;;5.90;4.20;;;13.70;99.90;;;;;;461084;257;28431;-65
2021/06/13 02:27:21;;;;;;;7.60;4.83;;;13.60;99.90;;;;;;461023;257;28493;-66
2021/06/13 02:29:23;;;;;;;6.63;4.33;;;13.50;99.90;;;;;;461050;257;28556;-65
2021/06/13 02:31:24;;;;;;;10.30;3.80;;;13.40;99.90;;;;;;461077;257;28265;-66
2021/06/13 02:33:25;;;;;;;7.90;4.47;;;13.20;99.90;;;;;;461067;256;28584;-67
2021/06/13 02:35:27;;;;;;;9.77;4.37;;;13.10;99.90;;;;;;461028;257;28362;-65
2021/06/13 02:37:28;;;;;;;7.80;5.00;;;13.00;99.90;;;;;;460996;257;28330;-65
2021/06/13 02:39:29;;;;;;;5.70;4.63;;;12.90;99.90;;;;;;461022;257;29837;-65
2021/06/13 02:41:30;;;;;;;9.53;4.90;;;12.80;99.90;;;;;;461088;257;29047;-65
2021/06/13 02:43:32;;;;;;;7.70;5.27;;;12.70;99.90;;;;;;461037;257;29053;-66
2021/06/13 02:45:33;;;;;;;4.77;4.17;;;12.70;99.90;;;;;;461062;257;28237;-65
2021/06/13 02:47:34;;;;;;;9.00;5.10;;;12.70;99.90;;;;;;461058;257;28296;-66
2021/06/13 02:49:35;;;;;;;7.27;4.10;;;12.70;99.90;;;;;;461045;257;28527;-65
2021/06/13 02:51:37;;;;;;;5.27;4.40;;;12.80;99.90;;;;;;461047;256;28410;-65
2021/06/13 02:53:43;;;;;;;6.43;4.53;;;12.80;99.90;;;;;;461014;257;28398;-67
2021/06/13 02:55:45;;;;;;;7.33;4.13;;;12.90;99.90;;;;;;461037;257;28351;-65
2021/06/13 02:57:46;;;;;;;7.00;4.37;;;13.00;99.90;;;;;;461060;257;28307;-66
2021/06/13 02:59:47;;;;;;;7.30;3.90;;;13.00;99.90;;;;;;461048;256;28448;-65
2021/06/13 03:01:48;;;;;;;9.63;5.20;;;12.90;99.90;;;;;;461068;257;28385;-66
2021/06/13 03:03:50;;;;;;;9.53;5.07;;;12.90;99.90;;;;;;461032;257;28691;-65
2021/06/13 03:05:51;;;;;;;7.50;4.50;;;12.70;99.90;;;;;;461040;257;28382;-65
2021/06/13 03:07:52;;;;;;;5.03;4.13;;;12.70;99.90;;;;;;461056;257;28826;-66
2021/06/13 03:09:53;;;;;;;9.33;4.17;;;12.70;99.90;;;;;;461044;257;28899;-65
2021/06/13 03:11:55;;;;;;;7.27;3.73;;;12.70;99.90;;;;;;461043;257;28826;-66
2021/06/13 03:13:56;;;;;;;8.13;4.30;;;12.70;99.90;;;;;;461035;257;28834;-65
2021/06/13 03:15:57;;;;;;;6.10;4.33;;;12.50;99.90;;;;;;461085;257;28415;-65
2021/06/13 03:17:59;;;;;;;4.70;3.97;;;12.40;99.90;;;;;;461055;257;28189;-66
2021/06/13 03:20:00;;;;;;;5.00;3.87;;;12.40;99.90;;;;;;461037;257;28345;-66
2021/06/13 03:22:01;;;;;;;4.27;3.87;;;12.20;99.90;;;;;;461026;257;28362;-65
2021/06/13 03:24:02;;;;;;;4.30;3.90;;;12.10;99.90;;;;;;461044;257;28962;-65
2021/06/13 03:26:04;;;;;;;6.83;4.60;;;12.10;99.90;;;;;;461059;257;28228;-66
2021/06/13 03:28:05;;;;;;;6.33;4.50;;;12.10;99.90;;;;;;461100;257;29014;-67
2021/06/13 03:30:06;;;;;;;7.47;5.13;;;12.10;99.90;;;;;;461058;255;28291;-65
2021/06/13 03:32:07;;;;;;;6.67;5.27;;;12.10;99.90;;;;;;461100;257;28834;-65
2021/06/13 03:34:09;;;;;;;7.70;5.10;;;12.10;99.90;;;;;;461038;257;29670;-65
2021/06/13 03:36:10;;;;;;;9.87;4.80;;;12.20;99.90;;;;;;461051;257;28791;-65
2021/06/13 03:38:11;;;;;;;8.07;4.60;;;12.30;99.90;;;;;;461053;257;28391;-65
2021/06/13 03:40:12;;;;;;;4.93;4.43;;;12.40;99.90;;;;;;461055;257;28284;-65
2021/06/13 03:42:14;;;;;;;9.90;5.70;;;12.50;99.90;;;;;;460996;257;28119;-65
2021/06/13 03:44:16;;;;;;;9.00;4.60;;;;;;;;;;460975;257;28497;-65
2021/06/13 03:46:17;;;;;;;8.50;5.47;;;12.60;99.90;;;;;;461000;258;27423;-65
2021/06/13 03:48:18;;;;;;;10.90;5.97;;;12.60;99.90;;;;;;461002;256;29429;-65
2021/06/13 03:50:20;;;;;;;8.50;5.17;;;12.50;99.90;;;;;;460913;256;28989;-65
2021/06/13 03:52:22;;;;;;;8.30;5.57;;;;;;;;;;461008;257;29027;-64
2021/06/13 03:54:23;;;;;;;10.60;5.20;;;12.50;99.90;;;;;;460985;258;27411;-65
2021/06/13 03:56:25;;;;;;;7.07;4.87;;;12.60;99.90;;;;;;461021;257;28895;-65
2021/06/13 03:58:26;;;;;;;7.00;5.60;;;12.60;99.90;;;;;;460975;257;28830;-65
2021/06/13 04:00:29;;;;;;;5.97;4.50;;;12.60;99.90;;;;;;461009;257;28460;-65
2021/06/13 04:02:28;;;;;;;8.00;5.87;;;12.60;99.90;;;;;;460980;257;28348;-64
2021/06/13 04:04:30;;;;;;;7.50;5.70;;;12.50;99.90;;;;;;461059;257;28222;-66
2021/06/13 04:06:31;;;;;;;10.17;5.90;;;12.50;99.90;;;;;;461016;257;28544;-65
2021/06/13 04:08:32;;;;;;;6.07;5.17;;;12.40;99.90;;;;;;461002;257;28584;-65
2021/06/13 04:10:33;;;;;;;5.17;4.10;;;12.50;99.90;;;;;;461056;257;28472;-67
2021/06/13 04:12:35;;;;;;;8.33;5.23;;;12.60;99.90;;;;;;461070;257;28872;-65
2021/06/13 04:14:36;;;;;;;4.43;4.07;;;12.60;99.90;;;;;;461001;257;28440;-66
2021/06/13 04:16:37;;;;;;;7.87;4.87;;;12.70;99.90;;;;;;461021;257;29347;-64
2021/06/13 04:18:38;;;;;;;5.73;4.60;;;12.80;99.90;;;;;;461026;257;28676;-65
2021/06/13 04:20:40;;;;;;;4.07;3.60;;;12.80;99.90;;;;;;461064;257;28858;-67
2021/06/13 04:22:41;;;;;;;5.90;4.13;;;12.60;99.90;;;;;;461044;257;28274;-66
2021/06/13 04:24:42;;;;;;;5.00;4.50;;;12.50;99.90;;;;;;461058;257;28296;-66
2021/06/13 04:26:43;;;;;;;5.70;4.20;;;12.60;99.90;;;;;;461006;257;28298;-65
2021/06/13 04:28:46;;;;;;;5.40;3.73;;;;;;;;;;461067;257;28265;-66
2021/06/13 04:30:47;;;;;;;5.00;4.47;;;12.60;99.90;;;;;;461054;254;27031;-65
2021/06/13 04:32:49;;;;;;;8.53;4.40;;;12.60;99.90;;;;;;461044;257;28808;-65
2021/06/13 04:34:50;;;;;;;7.23;4.30;;;12.50;99.90;;;;;;460957;258;29524;-64
2021/06/13 04:36:51;;;;;;;6.53;4.17;;;12.60;99.90;;;;;;461063;257;28189;-65
2021/06/13 04:38:52;;;;;;;7.87;4.73;;;12.60;99.90;;;;;;461054;257;28406;-65
2021/06/13 04:40:53;;;;;;;12.20;4.67;;;12.60;99.90;;;;;;461033;257;28272;-64
2021/06/13 04:42:55;;;;;;;6.37;4.67;;;12.70;99.90;;;;;;461010;257;28289;-64
2021/06/13 04:44:58;;;;;;;4.30;3.87;;;;;;;;;;461025;257;28236;-65
2021/06/13 04:46:58;;;;;;;9.93;5.43;;;12.80;99.90;;;;;;461032;258;27141;-65
2021/06/13 04:49:00;;;;;;;5.10;4.03;;;12.80;99.90;;;;;;461020;257;28189;-65
2021/06/13 04:51:01;;;;;;;9.37;5.27;;;12.80;99.90;;;;;;461024;255;28254;-65
2021/06/13 04:53:02;;;;;;;7.43;5.50;;;12.80;99.90;;;;;;461025;257;28217;-65
2021/06/13 04:55:05;;;;;;;5.63;5.03;;;12.70;99.90;;;;;;461068;257;28279;-65
2021/06/13 04:57:05;;;;;;;6.10;5.33;;;12.80;99.90;;;;;;460974;258;28884;-65
2021/06/13 04:59:06;;;;;;;7.40;4.83;;;12.90;99.90;;;;;;461025;257;28379;-65
2021/06/13 05:01:07;;;;;;;6.23;4.70;;;12.90;99.90;;;;;;461004;257;28692;-65
2021/06/13 05:03:08;;;;;;;7.23;5.53;;;12.90;99.90;;;;;;461033;257;28712;-67
2021/06/13 05:05:10;;;;;;;5.53;4.60;;;13.00;99.90;;;;;;461037;257;28413;-66
2021/06/13 05:07:11;;;;;;;6.50;4.83;;;13.10;99.90;;;;;;461035;257;28455;-66
2021/06/13 05:09:12;;;;;;;6.00;4.90;;;13.20;99.90;;;;;;461006;257;28315;-66
2021/06/13 05:11:15;;;;;;;6.13;4.20;;;;;;;;;;461031;257;28470;-68
2021/06/13 05:13:16;;;;;;;6.50;4.67;;;13.20;99.90;;;;;;461021;258;26882;-66
2021/06/13 05:15:17;;;;;;;7.67;5.07;;;13.30;99.90;;;;;;461026;257;28319;-66
2021/06/13 05:17:18;;;;;;;5.07;4.47;;;13.30;99.90;;;;;;461039;257;28208;-66
2021/06/13 05:19:20;;;;;;;8.00;4.53;;;13.30;99.90;;;;;;461030;257;28386;-65
2021/06/13 05:21:21;;;;;;;5.20;4.50;;;13.40;99.90;;;;;;461039;257;28235;-67
2021/06/13 05:23:22;;;;;;;6.27;4.20;;;13.40;99.90;;;;;;461004;255;28569;-65
2021/06/13 05:25:23;;;;;;;5.47;4.53;;;13.40;99.90;;;;;;460880;257;28499;-65
2021/06/13 05:27:25;;;;;;;8.33;4.97;;;13.50;99.90;;;;;;460805;257;28551;-65
2021/06/13 05:29:26;;;;;;;7.13;4.63;;;13.50;99.90;;;;;;460825;257;28350;-65
2021/06/13 05:31:27;;;;;;;5.47;4.70;;;13.50;99.90;;;;;;460865;257;28598;-67
2021/06/13 05:33:28;;;;;;;11.40;7.00;;;13.60;99.90;;;;;;460976;257;28978;-66
2021/06/13 05:35:30;;;;;;;8.20;6.10;;;13.60;99.90;;;;;;461021;257;29092;-66
2021/06/13 05:37:31;;;;;;;11.27;6.57;;;13.70;99.90;;;;;;461001;257;31322;-65
2021/06/13 05:39:32;;;;;;;9.90;7.03;;;13.80;99.90;;;;;;461045;257;28617;-66
2021/06/13 05:41:33;;;;;;;14.80;7.20;;;13.70;99.90;;;;;;461055;256;28653;-67
2021/06/13 05:43:35;;;;;;;8.63;6.40;;;13.70;99.90;;;;;;461050;257;28299;-66
2021/06/13 05:45:36;;;;;;;10.57;6.10;;;13.80;99.90;;;;;;461055;257;28903;-65
2021/06/13 05:47:37;;;;;;;9.80;5.50;;;13.90;99.90;;;;;;461066;257;28618;-67
2021/06/13 05:49:38;;;;;;;9.63;7.00;;;13.90;99.90;;;;;;461073;257;28617;-65
2021/06/13 05:51:40;;;;;;;11.90;7.73;;;14.00;99.90;;;;;;461021;257;28583;-66
2021/06/13 05:53:41;;;;;;;12.47;7.93;;;14.00;99.90;;;;;;461016;256;28876;-65
2021/06/13 05:55:42;;;;;;;13.70;8.20;;;13.80;99.90;;;;;;461000;257;28637;-66
2021/06/13 05:57:44;;;;;;;13.87;8.20;;;13.70;99.90;;;;;;461052;257;28898;-67
2021/06/13 05:59:45;;;;;;;11.80;8.63;;;13.90;99.90;;;;;;461018;256;29104;-65
2021/06/13 06:01:46;;;;;;;12.77;8.73;;;13.90;99.90;;;;;;461028;257;29384;-65
2021/06/13 06:03:47;;;;;;;12.43;8.97;;;13.90;99.90;;;;;;460682;256;29031;-65
2021/06/13 06:05:50;;;;;;;16.90;8.40;;;13.70;99.90;;;;;;460990;257;28984;-65
2021/06/13 06:07:50;;;;;;;12.87;8.20;;;13.90;99.90;;;;;;460973;258;28582;-67
2021/06/13 06:09:51;;;;;;;13.30;7.70;;;13.60;99.90;;;;;;461014;257;28442;-65
2021/06/13 06:11:52;;;;;;;16.63;8.40;;;13.80;99.90;;;;;;461043;257;29024;-66
2021/06/13 06:13:53;;;;;;;11.50;9.23;;;13.70;99.90;;;;;;460999;257;28661;-65
2021/06/13 06:15:55;;;;;;;11.63;8.60;;;13.70;99.90;;;;;;461024;257;28570;-66
2021/06/13 06:17:56;;;;;;;14.77;8.80;;;13.90;99.90;;;;;;461061;257;29416;-65
2021/06/13 06:19:57;;;;;;;18.43;9.03;;;14.10;99.90;;;;;;461058;257;29396;-65
2021/06/13 06:21:58;;;;;;;10.20;8.30;;;14.10;99.90;;;;;;461029;257;29463;-66
2021/06/13 06:24:00;;;;;;;12.30;8.13;;;14.00;99.90;;;;;;461018;257;28858;-65
2021/06/13 06:26:01;;;;;;;13.40;7.97;;;14.00;99.90;;;;;;461060;257;28867;-66
2021/06/13 06:28:02;;;;;;;11.00;8.50;;;14.00;99.90;;;;;;461081;257;28925;-67
2021/06/13 06:30:04;;;;;;;16.53;7.80;;;14.00;99.90;;;;;;461041;257;28886;-65
2021/06/13 06:32:05;;;;;;;14.27;7.03;;;14.10;99.90;;;;;;461008;257;28906;-65
2021/06/13 06:34:06;;;;;;;11.53;8.10;;;14.10;99.90;;;;;;461025;257;28661;-65
2021/06/13 06:36:07;;;;;;;13.13;7.83;;;14.20;99.90;;;;;;461038;257;29494;-65
2021/06/13 06:38:09;;;;;;;13.30;8.73;;;14.30;99.90;;;;;;461061;257;29396;-67
2021/06/13 06:40:10;;;;;;;11.80;8.17;;;14.40;99.90;;;;;;461040;257;29514;-64
2021/06/13 06:42:11;;;;;;;14.73;8.53;;;14.30;99.90;;;;;;461024;257;29000;-65
2021/06/13 06:44:12;;;;;;;15.27;9.23;;;14.30;99.90;;;;;;461037;257;28557;-65
2021/06/13 06:46:14;;;;;;;12.20;8.47;;;14.20;99.90;;;;;;461062;257;28403;-65
2021/06/13 06:48:15;;;;;;;16.13;8.40;;;14.20;99.90;;;;;;461065;257;28729;-66
2021/06/13 06:50:16;;;;;;;11.40;6.90;;;14.30;99.90;;;;;;461019;257;28497;-65
2021/06/13 06:52:17;;;;;;;10.43;7.20;;;14.50;99.90;;;;;;461065;257;28732;-65
2021/06/13 06:54:19;;;;;;;15.80;8.13;;;14.50;99.90;;;;;;461023;257;30074;-65
2021/06/13 06:56:20;;;;;;;11.10;7.40;;;14.40;99.90;;;;;;461055;257;29347;-65
2021/06/13 06:58:21;;;;;;;12.97;7.67;;;14.40;99.90;;;;;;461040;257;29370;-66
2021/06/13 07:00:22;;;;;;;10.40;7.60;;;14.60;99.90;;;;;;461046;257;28882;-65
2021/06/13 07:02:24;;;;;;;14.20;8.80;;;14.40;99.90;;;;;;461078;257;28893;-66
2021/06/13 07:04:25;;;;;;;8.17;6.63;;;14.30;99.90;;;;;;461070;257;28638;-65
2021/06/13 07:06:26;;;;;;;11.33;6.90;;;14.50;99.90;;;;;;461055;257;28952;-65
2021/06/13 07:08:27;;;;;;;9.73;7.00;;;14.70;99.90;;;;;;461098;257;28744;-65
2021/06/13 07:10:29;;;;;;;16.23;7.47;;;14.70;99.90;;;;;;461053;257;28924;-65
2021/06/13 07:12:30;;;;;;;12.00;7.90;;;14.60;99.90;;;;;;461058;256;28905;-65
2021/06/13 07:14:31;;;;;;;8.83;6.50;;;14.70;99.90;;;;;;461050;257;29843;-67
2021/06/13 07:16:32;;;;;;;11.93;6.67;;;14.60;99.90;;;;;;461057;257;28947;-65
2021/06/13 07:18:36;;;;;;;11.47;7.07;;;14.80;99.90;;;;;;461093;257;28958;-65
2021/06/13 07:20:36;;;;;;;8.30;6.17;;;14.80;99.90;;;;;;460965;258;28881;-65
2021/06/13 07:22:36;;;;;;;11.93;6.83;;;14.90;99.90;;;;;;461046;257;28896;-66
2021/06/13 07:24:37;;;;;;;9.33;5.97;;;14.90;99.90;;;;;;461096;257;29335;-67
2021/06/13 07:26:39;;;;;;;9.43;6.70;;;14.90;99.90;;;;;;461074;257;28859;-65
2021/06/13 07:28:40;;;;;;;9.43;5.83;;;14.80;99.90;;;;;;461049;257;29376;-65
2021/06/13 07:30:41;;;;;;;10.77;6.10;;;14.90;99.90;;;;;;461031;257;29433;-65
2021/06/13 07:32:42;;;;;;;11.07;6.00;;;14.90;99.90;;;;;;461017;257;29481;-65
2021/06/13 07:34:44;;;;;;;8.00;5.33;;;15.00;99.90;;;;;;461090;257;28999;-67
2021/06/13 07:36:45;;;;;;;20.53;6.90;;;14.90;99.90;;;;;;461047;257;28935;-65
2021/06/13 07:38:46;;;;;;;7.90;6.50;;;14.90;99.90;;;;;;461042;257;28919;-66
2021/06/13 07:40:47;;;;;;;13.83;6.73;;;15.00;99.90;;;;;;461022;257;29043;-65
2021/06/13 07:42:49;;;;;;;11.60;6.57;;;15.00;99.90;;;;;;461022;257;29052;-65
2021/06/13 07:44:51;;;;;;;10.10;7.53;;;15.10;99.90;;;;;;461019;257;29237;-66
2021/06/13 07:46:51;;;;;;;12.07;7.17;;;15.10;99.90;;;;;;461040;257;28890;-65
2021/06/13 07:48:52;;;;;;;10.87;6.93;;;14.90;99.90;;;;;;461028;257;28924;-65
2021/06/13 07:50:54;;;;;;;10.30;6.10;;;15.00;99.90;;;;;;461030;257;28937;-65
2021/06/13 07:52:55;;;;;;;13.30;6.63;;;15.10;99.90;;;;;;461022;257;28885;-66
2021/06/13 07:54:56;;;;;;;8.73;5.77;;;15.30;99.90;;;;;;461049;257;28890;-67
2021/06/13 07:56:58;;;;;;;10.53;6.60;;;15.40;99.90;;;;;;461034;255;28899;-65
2021/06/13 07:58:59;;;;;;;8.43;4.83;;;15.40;99.90;;;;;;461011;257;29369;-66
2021/06/13 08:01:00;;;;;;;7.27;5.37;;;15.60;99.90;;;;;;461028;257;29431;-65
2021/06/13 08:03:01;;;;;;;9.37;6.00;;;15.70;99.90;;;;;;461025;257;29325;-65
2021/06/13 08:05:07;;;;;;;8.17;5.00;;;15.70;99.90;;;;;;461023;257;29384;-66
2021/06/13 08:07:04;;;;;;;9.37;5.47;;;15.80;99.90;;;;;;460740;258;28862;-65
2021/06/13 08:09:05;;;;;;;8.50;5.80;;;15.80;99.90;;;;;;461031;257;28920;-65
2021/06/13 08:11:06;;;;;;;8.20;4.97;;;15.80;99.90;;;;;;461013;256;28992;-65
2021/06/13 08:13:08;;;;;;;7.00;4.70;;;15.90;99.90;;;;;;461049;257;28882;-65
2021/06/13 08:15:09;;;;;;;6.00;5.07;;;16.00;99.90;;;;;;461006;257;28970;-66
2021/06/13 08:17:10;;;;;;;6.70;5.40;;;16.00;99.90;;;;;;461053;257;28865;-65
2021/06/13 08:19:11;;;;;;;10.43;5.17;;;16.00;99.90;;;;;;461038;257;28886;-65
2021/06/13 08:21:13;;;;;;;10.03;5.07;;;15.90;99.90;;;;;;461012;257;29355;-65
2021/06/13 08:23:14;;;;;;;9.27;5.57;;;16.00;99.90;;;;;;461035;257;29320;-66
2021/06/13 08:25:15;;;;;;;7.57;4.30;;;16.00;99.90;;;;;;461041;257;29374;-66
2021/06/13 08:27:16;;;;;;;8.13;4.70;;;16.00;99.90;;;;;;461029;257;29317;-65
2021/06/13 08:29:18;;;;;;;8.43;5.13;;;16.10;99.90;;;;;;461016;257;28968;-65
2021/06/13 08:31:21;;;;;;;7.03;4.97;;;16.20;99.90;;;;;;461029;257;28874;-65
2021/06/13 08:33:20;;;;;;;5.30;4.23;;;16.10;99.90;;;;;;460952;257;28855;-66
2021/06/13 08:35:21;;;;;;;6.10;4.27;;;16.10;99.90;;;;;;461012;257;28887;-66
2021/06/13 08:37:23;;;;;;;7.33;5.20;;;16.20;99.90;;;;;;461016;257;28933;-65
2021/06/13 08:39:24;;;;;;;7.40;3.80;;;16.40;99.90;;;;;;461016;257;28902;-65
2021/06/13 08:41:25;;;;;;;6.80;4.83;;;16.40;99.90;;;;;;461056;257;28988;-66
2021/06/13 08:43:26;;;;;;;7.53;5.10;;;16.50;99.90;;;;;;461026;257;28900;-65
2021/06/13 08:45:28;;;;;;;10.07;4.83;;;16.40;99.90;;;;;;461041;257;28906;-65
2021/06/13 08:47:29;;;;;;;7.07;4.70;;;16.20;99.90;;;;;;460989;257;29317;-64
2021/06/13 08:49:31;;;;;;;7.93;4.80;;;16.30;99.90;;;;;;460998;257;29349;-65
2021/06/13 08:51:31;;;;;;;7.10;4.27;;;16.30;99.90;;;;;;461019;257;29443;-67
2021/06/13 08:53:33;;;;;;;6.37;4.20;;;16.40;99.90;;;;;;461038;257;28942;-66
2021/06/13 08:55:34;;;;;;;6.40;4.17;;;16.40;99.90;;;;;;461031;257;28952;-65
2021/06/13 08:57:35;;;;;;;5.70;4.00;;;16.40;99.90;;;;;;460991;257;28978;-67
2021/06/13 08:59:39;;;;;;;5.47;3.83;;;16.40;99.90;;;;;;461059;257;28927;-65
2021/06/13 09:01:40;;;;;;;6.10;4.10;;;16.50;99.90;;;;;;461031;257;28849;-65
2021/06/13 09:03:42;;;;;;;9.30;4.30;;;16.70;99.90;;;;;;461039;256;28903;-67
2021/06/13 09:05:43;;;;;;;5.90;3.80;;;16.70;99.90;;;;;;461067;257;28858;-65
2021/06/13 09:07:44;;;;;;;5.33;4.33;;;16.70;99.90;;;;;;461037;256;29367;-66
2021/06/13 09:09:46;;;;;;;5.20;3.83;;;16.80;99.90;;;;;;461086;257;30048;-67
2021/06/13 09:11:47;;;;;;;5.73;3.60;;;16.70;99.90;;;;;;461044;257;28928;-65
2021/06/13 09:13:48;;;;;;;4.40;3.60;;;16.80;99.90;;;;;;461010;256;28998;-65
2021/06/13 09:15:49;;;;;;;3.83;3.30;;;16.70;99.90;;;;;;461025;257;28857;-65
2021/06/13 09:17:51;;;;;;;6.17;3.73;;;17.00;99.90;;;;;;461023;257;28973;-65
2021/06/13 09:19:52;;;;;;;6.43;3.53;;;17.00;99.90;;;;;;461031;257;28933;-66
2021/06/13 09:21:53;;;;;;;3.87;3.50;;;17.20;99.90;;;;;;461043;257;28861;-65
2021/06/13 09:23:54;;;;;;;7.50;4.20;;;17.20;99.90;;;;;;461011;257;29411;-65
2021/06/13 09:25:56;;;;;;;5.87;3.87;;;17.20;99.90;;;;;;461056;257;29333;-65
2021/06/13 09:27:57;;;;;;;5.97;3.60;;;17.10;99.90;;;;;;461028;257;29447;-65
2021/06/13 09:29:58;;;;;;;6.67;3.97;;;17.30;99.90;;;;;;461069;257;28972;-67
2021/06/13 09:31:59;;;;;;;4.13;3.67;;;17.50;99.90;;;;;;461036;257;28895;-65
2021/06/13 09:34:01;;;;;;;4.10;3.30;;;17.50;99.90;;;;;;461029;257;29002;-65
2021/06/13 09:36:02;;;;;;;3.73;3.43;;;17.40;99.90;;;;;;461047;257;28865;-65
2021/06/13 09:38:03;;;;;;;6.47;3.30;;;17.20;99.90;;;;;;461032;257;28875;-65
2021/06/13 09:40:04;;;;;;;5.70;3.20;;;17.30;99.90;;;;;;461067;257;28917;-66
2021/06/13 09:42:08;;;;;;;4.60;3.23;;;17.20;99.90;;;;;;461060;257;28864;-65
2021/06/13 09:44:07;;;;;;;7.37;3.73;;;17.40;99.90;;;;;;460949;257;28939;-65
2021/06/13 09:46:08;;;;;;;4.43;3.00;;;17.40;99.90;;;;;;461052;257;29302;-67
2021/06/13 09:48:09;;;;;;;4.07;3.20;;;17.40;99.90;;;;;;461018;257;29443;-65
2021/06/13 09:50:11;;;;;;;4.30;3.00;;;17.40;99.90;;;;;;461077;257;29384;-66
2021/06/13 09:52:12;;;;;;;4.43;2.80;;;17.50;99.90;;;;;;461056;257;29414;-65
2021/06/13 09:54:13;;;;;;;6.60;3.70;;;17.50;99.90;;;;;;461021;257;28875;-65
2021/06/13 09:56:14;;;;;;;9.00;3.60;;;17.70;99.90;;;;;;461068;257;28914;-67
2021/06/13 09:58:16;;;;;;;5.30;2.70;;;17.70;99.90;;;;;;461060;257;28863;-65
2021/06/13 10:00:17;;;;;;;4.20;3.30;;;17.70;99.90;;;;;;461050;257;28914;-65
2021/06/13 10:02:21;;;;;;;13.33;3.33;;;17.60;99.90;;;;;;461051;257;28872;-65
2021/06/13 10:04:27;;;;;;;4.60;3.20;;;17.90;99.90;;;;;;460937;257;28884;-65
2021/06/13 10:06:23;;;;;;;4.50;2.80;;;17.90;99.90;;;;;;460796;255;28981;-65
2021/06/13 10:08:25;;;;;;;6.00;3.07;;;17.90;99.90;;;;;;461075;257;28884;-65
2021/06/13 10:10:26;;;;;;;3.17;2.70;;;17.80;99.90;;;;;;461030;257;28847;-65
2021/06/13 10:12:27;;;;;;;6.00;2.90;;;17.90;99.90;;;;;;461038;257;28891;-65
2021/06/13 10:14:28;;;;;;;3.60;3.00;;;17.80;99.90;;;;;;461017;257;28896;-65
2021/06/13 10:16:30;;;;;;;2.63;2.43;;;17.90;99.90;;;;;;461088;257;28976;-65
2021/06/13 10:18:31;;;;;;;3.20;2.90;;;18.10;99.90;;;;;;461048;257;28930;-66
2021/06/13 10:20:32;;;;;;;4.23;2.63;;;18.00;99.90;;;;;;461025;257;28852;-65
2021/06/13 10:22:33;;;;;;;4.67;3.17;;;18.20;99.90;;;;;;461038;255;28979;-65
2021/06/13 10:24:35;;;;;;;4.07;2.67;;;18.20;99.90;;;;;;461077;257;29383;-66
2021/06/13 10:26:36;;;;;;;5.10;2.70;;;18.20;99.90;;;;;;461052;257;29288;-65
2021/06/13 10:28:37;;;;;;;4.00;2.83;;;18.20;99.90;;;;;;461057;257;29457;-66
2021/06/13 10:30:39;;;;;;;3.33;2.40;;;18.30;99.90;;;;;;461050;257;28981;-65